STI weather

Aeroclub San Martín
San Martin, Mendoza Province, Argentina

Public forecast

Using degrees Celsius for public forecast. Weather courtesy of forecast.io.

Closest aviation weather report (METAR) to Aeroclub San Martín

Closest report is El Plumerillo Airport, 19.9 nm (36.9 km) NW. Retrieved 2020/08/08 09:00 UTC (20 minutes ago):

SAME 080900Z 00000KT CAVOK 03/M02 Q1020

Closest aviation forecast (TAF) to Aeroclub San Martín

Closest forecast is El Plumerillo Airport, 19.9 nm (36.9 km) NW. Retrieved 2020/08/08 06:00 UTC (3 hours ago):

TAF SAME 080500Z 0806/0906 25005KT CAVOK TX19/0820Z TN02/0811Z BECMG 0812/0814 36008KT